D/T METAR WX W/DIR W/SPE G/SPE TEMP DEWP
7/12/19 20:50 EGHI 072050Z 22016G28KT 180V260 9999 BKN018 11/08 Q1010 SW (220°) 18.4mph 32.2mph 11°C 8°C
7/12/19 20:20 EGHI 072020Z 21012G22KT 9999 BKN018 11/08 Q1011 SSW (210°) 13.8mph 25.3mph 11°C 8°C
7/12/19 19:50 EGHI 071950Z 21011KT 9999 BKN018 11/08 Q1012 SSW (210°) 12.7mph 11°C 8°C
7/12/19 19:20 EGHI 071920Z 22010KT 180V240 9999 BKN020 11/07 Q1012 SW (220°) 11.5mph 11°C 7°C
7/12/19 18:50 EGHI 071850Z 22010KT 190V250 9999 BKN020 11/07 Q1012 SW (220°) 11.5mph 11°C 7°C
7/12/19 18:20 EGHI 071820Z 21007KT 180V240 9999 BKN018 11/08 Q1013 SSW (210°) 8.1mph 11°C 8°C
7/12/19 17:50 EGHI 071750Z 22007KT 9999 BKN022 11/07 Q1013 SW (220°) 8.1mph 11°C 7°C
7/12/19 17:20 EGHI 071720Z 21006KT 180V240 9999 BKN025 11/08 Q1013 SSW (210°) 6.9mph 11°C 8°C
7/12/19 16:50 EGHI 071650Z 21005KT 190V250 9999 BKN025 11/07 Q1013 SSW (210°) 5.8mph 11°C 7°C
7/12/19 16:20 EGHI 071620Z 22007KT 190V250 9999 BKN024 11/07 Q1014 SW (220°) 8.1mph 11°C 7°C
7/12/19 15:20 EGHI 071520Z 23010KT 9999 BKN022 11/06 Q1014 SW (230°) 11.5mph 11°C 6°C
7/12/19 14:50 EGHI 071450Z 22008KT 190V250 9999 BKN028 11/06 Q1014 SW (220°) 9.2mph 11°C 6°C
7/12/19 14:20 EGHI 071420Z 24008KT 210V280 9999 BKN028 11/06 Q1014 WSW (240°) 9.2mph 11°C 6°C
7/12/19 13:50 EGHI 071350Z 24007KT 210V270 9999 SCT028 12/06 Q1014 WSW (240°) 8.1mph 12°C 6°C
7/12/19 12:50 EGHI 071250Z 22010KT 190V260 9999 SCT031 11/05 Q1015 SW (220°) 11.5mph 11°C 5°C
7/12/19 12:20 EGHI 071220Z 23006KT 180V280 9999 FEW035 12/06 Q1015 SW (230°) 6.9mph 12°C 6°C
7/12/19 11:50 EGHI 071150Z 24008KT 9999 FEW035 11/05 Q1015 WSW (240°) 9.2mph 11°C 5°C
7/12/19 11:20 EGHI 071120Z 23006KT 170V260 9999 FEW035 11/06 Q1015 SW (230°) 6.9mph 11°C 6°C
7/12/19 10:20 EGHI 071020Z 19005KT 9999 SCT035 10/06 Q1015 S (190°) 5.8mph 10°C 6°C
7/12/19 09:50 EGHI 070950Z 23006KT 9999 BKN034 09/06 Q1015 SW (230°) 6.9mph 9°C 6°C
7/12/19 09:20 EGHI 070920Z 23005KT 9999 BKN035 09/06 Q1015 SW (230°) 5.8mph 9°C 6°C
7/12/19 08:50 EGHI 070850Z 22006KT 9999 BKN035 09/06 Q1015 SW (220°) 6.9mph 9°C 6°C
7/12/19 08:20 EGHI 070820Z 23005KT 9999 BKN030 08/07 Q1015 SW (230°) 5.8mph 8°C 7°C
7/12/19 07:50 EGHI 070750Z VRB03KT 9000 -DZ BKN025 09/07 Q1016 -DZ N (0°) 3.5mph 9°C 7°C
7/12/19 07:20 EGHI 070720Z 24004KT 9999 BKN025 09/07 Q1015 WSW (240°) 4.6mph 9°C 7°C
7/12/19 06:50 EGHI 070650Z 23005KT 9999 SCT022 09/07 Q1014 SW (230°) 5.8mph 9°C 7°C
7/12/19 06:20 EGHI 070620Z 22005KT 9999 SCT030 08/07 Q1014 SW (220°) 5.8mph 8°C 7°C
7/12/19 05:50 EGHI 070550Z 23005KT 200V280 9999 SCT035 08/06 Q1014 SW (230°) 5.8mph 8°C 6°C
6/12/19 21:50 EGHI 062150Z 25007KT 220V280 9999 SCT042 10/06 Q1010 WSW (250°) 8.1mph 10°C 6°C
6/12/19 21:20 EGHI 062120Z 26005KT 230V300 9999 SCT042 10/06 Q1010 W (260°) 5.8mph 10°C 6°C
6/12/19 20:50 EGHI 062050Z 25008KT 210V290 9999 SCT042 10/06 Q1009 WSW (250°) 9.2mph 10°C 6°C
6/12/19 20:20 EGHI 062020Z 25007KT 220V280 9999 FEW025 BKN034 11/06 Q1009 WSW (250°) 8.1mph 11°C 6°C
6/12/19 19:50 EGHI 061950Z 26008KT 230V300 9999 SCT028 BKN034 11/06 Q1008 W (260°) 9.2mph 11°C 6°C
6/12/19 19:20 EGHI 061920Z 26005KT 220V310 9999 BKN028 11/06 Q1008 W (260°) 5.8mph 11°C 6°C
6/12/19 18:50 EGHI 061850Z 26009KT 220V300 9999 SCT045 11/06 Q1007 W (260°) 10.4mph 11°C 6°C
6/12/19 18:20 EGHI 061820Z 26010KT 230V290 9999 FEW026 SCT045 11/06 Q1006 W (260°) 11.5mph 11°C 6°C
6/12/19 17:50 EGHI 061750Z 26010KT 220V310 9999 FEW026 SCT045 11/06 Q1006 W (260°) 11.5mph 11°C 6°C
6/12/19 17:20 EGHI 061720Z 27011KT 230V300 9999 FEW031 SCT040 12/06 Q1005 W (270°) 12.7mph 12°C 6°C
6/12/19 16:50 EGHI 061650Z 27012G23KT 230V300 9999 VCSH SCT022 SCT038 12/08 Q1005 VCSH W (270°) 13.8mph 26.5mph 12°C 8°C
6/12/19 16:20 EGHI 061620Z 24010KT 180V270 9999 VCSH SCT022 BKN032 12/09 Q1004 VCSH WSW (240°) 11.5mph 12°C 9°C
6/12/19 15:20 EGHI 061520Z 24011KT 210V290 9999 SCT015 BKN033 12/09 Q1004 WSW (240°) 12.7mph 12°C 9°C
6/12/19 14:50 EGHI 061450Z 23014KT 200V260 9999 SCT011 BKN027 13/10 Q1003 SW (230°) 16.1mph 13°C 10°C
6/12/19 14:20 EGHI 061420Z 23011KT 190V260 9000 -SHRA SCT009 BKN025 13/11 Q1003 -SHRA SW (230°) 12.7mph 13°C 11°C
6/12/19 13:50 EGHI 061350Z 22011KT 170V250 9999 VCSH FEW013 BKN038 13/11 Q1004 VCSH SW (220°) 12.7mph 13°C 11°C
6/12/19 13:20 EGHI 061320Z 23010KT 210V270 9999 FEW013 BKN038 13/11 Q1004 SW (230°) 11.5mph 13°C 11°C
6/12/19 12:50 EGHI 061250Z 23010KT 200V280 9999 FEW010 BKN038 13/11 Q1005 SW (230°) 11.5mph 13°C 11°C
6/12/19 12:20 EGHI 061220Z 24010KT 210V270 7000 VCSH SCT008 BKN018 13/11 Q1005 VCSH WSW (240°) 11.5mph 13°C 11°C
6/12/19 11:20 EGHI 061120Z 22012G24KT 190V260 4500 DZ BKN007 13/11 Q1006 DZ SW (220°) 13.8mph 27.6mph 13°C 11°C